Etusivu
METAR-TAF:

METAR-TAF

Lentoasemat :

N'Djamena, Tšad

N’Djamenan kansainvälinen lentoasema

Leveyspiiri: 12-08N, Pituuspiiri: 015-02E, korkeus merenpinnasta: 295 m

Tämänhetkinen sää

Tämä raportti tehtiin 56 minuuttia sitten, kello 14.00 UTC
Tuuli 9 kn pohjoisesta/koillisesta, vaihdellen pohjoisen/luoteen ja idän/koillisen välillä
Lämpötila 32°C
Kosteus 9%
Ilmanpaine 1010 hPa
Näkyvyys: 6000 m

METAR: FTTJ 241400Z 02009KT 340V060 6000 NSC 32/M05 Q1010 NOSIG

Aika: 15:56 (14:56 UTC)

Sääennuste

Tämä raportti tehtiin 3 tuntia ja 56 minuuttia sitten, kello 11.00 UTC
Ennuste voimassa 24. päivästä klo 12 UTC - 25. päivään klo 18 UTC
Tuuli 12 kn pohjoisesta/koillisesta
Näkyvyys: 4000 m
laajalle levinnyttä pölyä
Ajoittain
24. päivästä klo 16 UTC - 24. päivään klo 22 UTC
Näkyvyys: 2500 m

TAF: FTTJ 241100Z 2412/2518 03012KT 4000 DU NSC TEMPO 2416/2422 2500

Säähavainnot ja -ennusteet yli 4000 lentoasemalta (METAR- ja TAF-raportit).

Käytössä olevat sääasemat on merkitty karttaan keltaisilla ja punaisilla pisteillä.

Aseta hiiri pisteen päälle nähdäksesi sääaseman nimen.

Klikkaa sitten nähdäksesi säähavainnot ja -ennusteet.

Kartan vaihtaminen: klikkaa mustalla rastilla varustettuja vihreitä pisteitä, niin voit zoomata sisään; viivalla varustettua vihreää pistettä, niin voit zoomata ulos tai vihreitä nuolia, niin pääset viereisille kartoille.


METAR-TAF: